createdAt,value
2022-10-08T00:02:35.321Z,9.27
2022-10-08T00:05:36.713Z,9.88
2022-10-08T00:08:40.701Z,8.15
2022-10-08T00:11:42.147Z,11.10
2022-10-08T00:14:43.597Z,7.05
2022-10-08T00:17:45.045Z,7.38
2022-10-08T00:20:47.523Z,10.15
2022-10-08T00:23:50.420Z,6.82
2022-10-08T00:26:52.042Z,7.93
2022-10-08T00:29:53.466Z,5.78
2022-10-08T00:32:59.679Z,9.35
2022-10-08T00:36:07.225Z,6.03
2022-10-08T00:39:18.344Z,8.45
2022-10-08T00:42:20.387Z,6.00
2022-10-08T00:45:22.045Z,7.32
2022-10-08T00:48:23.472Z,12.27
2022-10-08T00:51:25.359Z,8.05
2022-10-08T00:54:26.842Z,8.25
2022-10-08T00:57:28.654Z,8.00
2022-10-08T01:00:31.273Z,10.55
2022-10-08T01:03:32.813Z,8.48
2022-10-08T01:06:51.633Z,8.73
2022-10-08T01:09:52.982Z,14.63
2022-10-08T01:13:35.900Z,9.93
2022-10-08T01:16:52.029Z,9.32
2022-10-08T01:20:21.146Z,11.55
2022-10-08T01:23:31.720Z,15.32
2022-10-08T01:26:52.248Z,14.75
2022-10-08T01:29:55.173Z,9.60
2022-10-08T01:33:02.906Z,13.02
2022-10-08T01:36:06.656Z,15.30
2022-10-08T01:39:13.358Z,17.42
2022-10-08T01:42:17.281Z,12.05
2022-10-08T01:45:26.511Z,13.30
2022-10-08T01:48:31.965Z,15.43
2022-10-08T01:51:46.898Z,10.20
2022-10-08T01:54:53.814Z,15.02
2022-10-08T01:57:59.492Z,16.73
2022-10-08T02:01:06.932Z,21.88
2022-10-08T02:04:08.442Z,15.90
2022-10-08T02:07:14.537Z,18.85
2022-10-08T02:10:21.222Z,18.40
2022-10-08T02:13:23.111Z,16.02
2022-10-08T02:16:29.511Z,19.40
2022-10-08T02:19:39.356Z,19.15
2022-10-08T02:22:55.541Z,13.00
2022-10-08T02:26:02.031Z,11.52
2022-10-08T02:29:15.470Z,18.05
2022-10-08T02:32:32.317Z,12.35
2022-10-08T02:35:43.951Z,12.68
2022-10-08T02:38:58.745Z,15.32
2022-10-08T02:42:05.666Z,13.98
2022-10-08T02:45:13.884Z,16.80
2022-10-08T02:48:23.588Z,17.75
2022-10-08T02:51:27.262Z,13.88
2022-10-08T02:54:34.529Z,14.57
2022-10-08T02:57:50.256Z,15.85
2022-10-08T03:01:00.631Z,11.43
2022-10-08T03:04:12.677Z,14.27
2022-10-08T03:07:14.495Z,14.90
2022-10-08T03:10:15.980Z,13.75
2022-10-08T03:13:17.835Z,13.15
2022-10-08T03:16:22.618Z,10.13
2022-10-08T03:19:24.230Z,19.05
2022-10-08T03:22:27.483Z,15.30
2022-10-08T03:25:28.902Z,17.53
2022-10-08T03:28:30.462Z,13.27
2022-10-08T03:31:32.526Z,14.93
2022-10-08T03:34:33.957Z,14.70
2022-10-08T03:37:35.435Z,17.23
2022-10-08T03:40:36.963Z,16.90
2022-10-08T03:43:38.858Z,21.98
2022-10-08T03:46:40.349Z,18.33
2022-10-08T03:49:41.764Z,20.30
2022-10-08T03:52:43.186Z,15.35
2022-10-08T03:55:44.607Z,16.83
2022-10-08T03:58:46.755Z,18.63
2022-10-08T04:01:48.236Z,15.38
2022-10-08T04:04:49.722Z,19.13
2022-10-08T04:07:51.145Z,18.25
2022-10-08T04:10:53.132Z,19.20
2022-10-08T04:13:54.722Z,21.33
2022-10-08T04:16:56.162Z,12.38
2022-10-08T04:19:57.619Z,13.68
2022-10-08T04:22:59.234Z,14.27
2022-10-08T04:26:00.789Z,11.70
2022-10-08T04:29:02.227Z,11.38
2022-10-08T04:32:03.630Z,8.98
2022-10-08T04:35:05.488Z,14.10
2022-10-08T04:38:06.902Z,12.45
2022-10-08T04:41:13.875Z,10.32
2022-10-08T04:44:15.359Z,19.13
2022-10-08T04:47:17.251Z,13.02
2022-10-08T04:50:18.659Z,7.82
2022-10-08T04:53:22.644Z,12.30
2022-10-08T04:56:26.894Z,6.75
2022-10-08T05:02:29.669Z,8.57
2022-10-08T05:05:31.155Z,11.63
2022-10-08T05:08:32.993Z,13.10
2022-10-08T05:11:34.412Z,11.48
2022-10-08T05:14:35.816Z,13.80
2022-10-08T05:17:37.204Z,11.60
2022-10-08T05:20:38.602Z,11.23
2022-10-08T05:23:40.412Z,9.63
2022-10-08T05:26:57.517Z,11.38
2022-10-08T05:29:59.294Z,11.32
2022-10-08T05:33:00.809Z,10.05
2022-10-08T05:36:04.561Z,13.82
2022-10-08T05:39:06.480Z,10.30
2022-10-08T05:42:07.901Z,17.90
2022-10-08T05:45:09.877Z,13.90
2022-10-08T05:48:11.305Z,12.35
2022-10-08T05:51:17.157Z,10.15
2022-10-08T05:54:19.238Z,15.43
2022-10-08T05:57:20.651Z,7.72
2022-10-08T06:00:22.105Z,10.57
2022-10-08T06:03:23.801Z,10.93
2022-10-08T06:06:25.369Z,11.43
2022-10-08T06:09:26.916Z,8.18
2022-10-08T06:12:28.350Z,16.05
2022-10-08T06:15:29.774Z,11.82
2022-10-08T06:18:33.791Z,11.13
2022-10-08T06:21:36.172Z,6.25
2022-10-08T06:24:37.639Z,13.38
2022-10-08T06:27:39.037Z,16.83
2022-10-08T06:30:41.802Z,8.60
2022-10-08T06:33:43.489Z,7.25
2022-10-08T06:36:44.936Z,5.40
2022-10-08T06:39:48.576Z,9.75
2022-10-08T06:42:50.571Z,11.73
2022-10-08T06:45:52.750Z,9.35
2022-10-08T06:48:54.179Z,7.22
2022-10-08T06:51:55.639Z,6.78
2022-10-08T06:54:57.096Z,10.07
2022-10-08T06:57:58.649Z,8.43
2022-10-08T07:01:03.535Z,8.65
2022-10-08T07:04:05.453Z,10.52
2022-10-08T07:07:07.038Z,5.80
2022-10-08T07:10:09.000Z,10.52
2022-10-08T07:13:10.415Z,8.18
2022-10-08T07:16:19.611Z,4.50
2022-10-08T07:19:23.540Z,7.15
2022-10-08T07:22:25.312Z,6.38
2022-10-08T07:25:26.738Z,7.55
2022-10-08T07:28:30.239Z,6.00
2022-10-08T07:31:34.353Z,6.25
2022-10-08T07:34:35.959Z,7.50
2022-10-08T07:37:41.857Z,8.80
2022-10-08T07:40:43.268Z,3.53
2022-10-08T07:43:44.690Z,7.82
2022-10-08T07:46:48.780Z,4.38
2022-10-08T07:49:50.250Z,9.98
2022-10-08T07:52:51.681Z,6.47
2022-10-08T07:55:57.265Z,9.27
2022-10-08T07:59:00.036Z,8.38
2022-10-08T08:02:01.447Z,5.35
2022-10-08T08:05:02.887Z,7.47
2022-10-08T08:08:04.334Z,4.90
2022-10-08T08:11:08.001Z,6.05
2022-10-08T08:14:09.639Z,9.43
2022-10-08T08:17:11.054Z,4.10
2022-10-08T08:20:12.467Z,10.73
2022-10-08T08:23:13.855Z,9.40
2022-10-08T08:26:24.315Z,8.70
2022-10-08T08:29:25.772Z,8.15
2022-10-08T08:32:28.674Z,18.15
2022-10-08T08:35:30.198Z,14.10
2022-10-08T08:38:34.158Z,6.07
2022-10-08T08:42:24.295Z,7.18
2022-10-08T08:45:45.777Z,8.98
2022-10-08T08:48:52.578Z,5.93
2022-10-08T08:51:55.714Z,8.90
2022-10-08T08:54:57.139Z,6.85
2022-10-08T08:58:14.321Z,4.90
2022-10-08T09:01:27.780Z,8.40
2022-10-08T09:04:37.904Z,8.10
2022-10-08T09:07:45.530Z,4.95
2022-10-08T09:10:56.281Z,5.53
2022-10-08T09:14:10.032Z,10.10
2022-10-08T09:17:18.158Z,9.52
2022-10-08T09:20:23.453Z,9.02
2022-10-08T09:23:26.357Z,6.47
2022-10-08T09:26:33.395Z,6.35
2022-10-08T09:29:34.792Z,8.57
2022-10-08T09:32:38.706Z,7.07
2022-10-08T09:35:44.414Z,8.73
2022-10-08T09:38:45.895Z,9.13
2022-10-08T09:42:06.358Z,8.85
2022-10-08T09:45:38.315Z,5.97
2022-10-08T09:48:39.771Z,6.32
2022-10-08T09:51:42.836Z,6.50
2022-10-08T09:54:48.389Z,7.70
2022-10-08T09:57:55.002Z,8.02
2022-10-08T10:01:13.611Z,6.25
2022-10-08T10:04:29.541Z,9.00
2022-10-08T10:07:41.067Z,5.60
2022-10-08T10:10:44.645Z,7.45
2022-10-08T10:13:48.249Z,6.05
2022-10-08T10:16:59.405Z,6.60
2022-10-08T10:20:05.531Z,8.00
2022-10-08T10:23:09.673Z,6.18
2022-10-08T10:26:22.256Z,8.88
2022-10-08T10:29:30.680Z,6.80
2022-10-08T10:32:39.888Z,7.45
2022-10-08T10:35:50.377Z,8.02
2022-10-08T10:39:02.091Z,9.80
2022-10-08T10:42:14.663Z,5.85
2022-10-08T10:45:23.068Z,8.80
2022-10-08T10:48:24.518Z,5.72
2022-10-08T10:51:40.285Z,9.48
2022-10-08T10:54:55.291Z,4.47
2022-10-08T10:58:06.721Z,5.88
2022-10-08T11:01:35.667Z,6.53
2022-10-08T11:05:00.826Z,3.45
2022-10-08T11:08:25.508Z,7.70
2022-10-08T11:11:38.204Z,8.75
2022-10-08T11:14:45.655Z,8.60
2022-10-08T11:18:09.587Z,5.13
2022-10-08T11:21:14.436Z,5.72
2022-10-08T11:24:24.861Z,9.70
2022-10-08T11:27:32.587Z,5.85
2022-10-08T11:30:55.976Z,5.18
2022-10-08T11:33:58.762Z,6.43
2022-10-08T11:37:25.414Z,4.85
2022-10-08T11:40:26.810Z,7.03
2022-10-08T11:43:38.197Z,8.02
2022-10-08T11:46:39.629Z,8.40
2022-10-08T11:49:41.022Z,4.65
2022-10-08T11:52:42.554Z,5.20
2022-10-08T11:55:57.752Z,6.50
2022-10-08T11:59:05.247Z,8.35
2022-10-08T12:02:23.695Z,4.13
2022-10-08T12:05:47.874Z,5.70
2022-10-08T12:08:55.382Z,9.57
2022-10-08T12:11:56.816Z,8.45
2022-10-08T12:14:58.248Z,4.13
2022-10-08T12:18:28.788Z,5.68
2022-10-08T12:21:30.152Z,5.60
2022-10-08T12:24:37.686Z,6.68
2022-10-08T12:27:39.147Z,7.95
2022-10-08T12:31:01.199Z,8.05
2022-10-08T12:34:02.643Z,3.42
2022-10-08T12:37:23.080Z,9.90
2022-10-08T12:40:33.466Z,6.03
2022-10-08T12:44:12.777Z,7.55
2022-10-08T12:47:33.039Z,6.68
2022-10-08T12:51:00.621Z,4.53
2022-10-08T12:54:26.020Z,8.63
2022-10-08T12:57:35.078Z,7.10
2022-10-08T13:00:37.231Z,6.15
2022-10-08T13:03:38.687Z,8.43
2022-10-08T13:06:40.112Z,5.90
2022-10-08T13:09:44.763Z,8.90
2022-10-08T13:13:37.246Z,7.05
2022-10-08T13:16:46.813Z,5.47
2022-10-08T13:19:48.307Z,7.82
2022-10-08T13:22:50.263Z,7.00
2022-10-08T13:25:51.748Z,7.82
2022-10-08T13:29:21.926Z,10.68
2022-10-08T13:32:29.438Z,5.82
2022-10-08T13:35:31.215Z,12.45
2022-10-08T13:38:35.677Z,9.82
2022-10-08T13:41:37.131Z,5.80
2022-10-08T13:44:40.258Z,9.98
2022-10-08T13:47:41.681Z,8.83
2022-10-08T13:50:48.502Z,5.97
2022-10-08T13:53:53.615Z,6.00
2022-10-08T13:56:57.791Z,7.43
2022-10-08T13:59:59.207Z,4.47
2022-10-08T14:03:00.938Z,5.60
2022-10-08T14:06:02.413Z,8.73
2022-10-08T14:09:05.083Z,8.10
2022-10-08T14:12:08.998Z,10.05
2022-10-08T14:15:13.590Z,10.25
2022-10-08T14:18:15.055Z,15.65
2022-10-08T14:21:16.853Z,5.05
2022-10-08T14:24:18.329Z,7.53
2022-10-08T14:27:19.761Z,7.70
2022-10-08T14:30:21.202Z,7.38
2022-10-08T14:33:22.957Z,8.13
2022-10-08T14:36:33.146Z,8.35
2022-10-08T14:39:34.548Z,4.90
2022-10-08T14:42:36.027Z,5.45
2022-10-08T14:45:37.465Z,7.00
2022-10-08T14:48:38.932Z,5.60
2022-10-08T14:51:40.382Z,4.68
2022-10-08T14:54:41.808Z,5.25
2022-10-08T14:57:43.476Z,8.40
2022-10-08T15:00:45.197Z,5.13
2022-10-08T15:03:46.653Z,8.10
2022-10-08T15:06:48.174Z,10.23
2022-10-08T15:09:49.569Z,3.60
2022-10-08T15:12:51.244Z,11.00
2022-10-08T15:15:52.864Z,11.75
2022-10-08T15:18:55.317Z,8.60
2022-10-08T15:21:56.702Z,12.77
2022-10-08T15:24:58.117Z,6.90
2022-10-08T15:27:59.513Z,5.85
2022-10-08T15:31:07.113Z,14.25
2022-10-08T15:34:15.736Z,11.23
2022-10-08T15:37:17.187Z,10.13
2022-10-08T15:40:18.592Z,11.18
2022-10-08T15:43:20.008Z,4.38
2022-10-08T15:46:22.730Z,7.03
2022-10-08T15:49:30.571Z,9.38
2022-10-08T15:52:31.976Z,6.95
2022-10-08T15:55:33.517Z,6.70
2022-10-08T15:58:50.268Z,7.15
2022-10-08T16:01:52.613Z,9.25
2022-10-08T16:04:54.039Z,9.48
2022-10-08T16:07:55.991Z,9.63
2022-10-08T16:10:58.273Z,8.43
2022-10-08T16:14:09.485Z,6.55
2022-10-08T16:17:10.993Z,7.88
2022-10-08T16:20:12.515Z,6.50
2022-10-08T16:23:13.884Z,6.97
2022-10-08T16:26:17.280Z,6.72
2022-10-08T16:29:19.150Z,7.68
2022-10-08T16:32:20.560Z,8.82
2022-10-08T16:35:21.960Z,10.85
2022-10-08T16:38:23.359Z,7.10
2022-10-08T16:41:29.887Z,11.07
2022-10-08T16:44:31.276Z,13.70
2022-10-08T16:47:32.689Z,10.52
2022-10-08T16:50:42.088Z,7.00
2022-10-08T16:53:48.649Z,9.25
2022-10-08T16:56:50.568Z,4.80
2022-10-08T16:59:59.094Z,7.15
2022-10-08T17:03:00.610Z,9.38
2022-10-08T17:06:03.132Z,10.50
2022-10-08T17:09:04.758Z,6.38
2022-10-08T17:12:06.347Z,8.15
2022-10-08T17:15:08.477Z,9.52
2022-10-08T17:18:09.903Z,6.65
2022-10-08T17:21:13.014Z,9.88
2022-10-08T17:24:14.554Z,10.02
2022-10-08T17:27:15.994Z,8.30
2022-10-08T17:30:18.438Z,9.63
2022-10-08T17:33:19.976Z,8.20
2022-10-08T17:36:33.188Z,6.93
2022-10-08T17:39:35.611Z,9.57
2022-10-08T17:42:38.040Z,8.20
2022-10-08T17:45:39.517Z,8.18
2022-10-08T17:48:41.993Z,9.95
2022-10-08T17:51:44.119Z,10.65
2022-10-08T17:54:45.600Z,10.50
2022-10-08T17:57:46.985Z,8.40
2022-10-08T18:00:48.412Z,11.88
2022-10-08T18:04:03.984Z,7.50
2022-10-08T18:07:05.356Z,9.68
2022-10-08T18:10:07.720Z,9.43
2022-10-08T18:13:09.179Z,8.98
2022-10-08T18:16:13.459Z,7.43
2022-10-08T18:19:15.321Z,9.73
2022-10-08T18:22:17.027Z,8.85
2022-10-08T18:25:18.467Z,12.20
2022-10-08T18:28:20.149Z,11.85
2022-10-08T18:31:25.011Z,14.82
2022-10-08T18:34:26.449Z,8.30
2022-10-08T18:37:27.865Z,13.18
2022-10-08T18:40:30.829Z,8.50
2022-10-08T18:43:32.201Z,11.55
2022-10-08T18:46:35.476Z,11.52
2022-10-08T18:49:36.960Z,13.53
2022-10-08T18:52:38.383Z,15.00
2022-10-08T18:55:39.837Z,12.13
2022-10-08T18:58:43.016Z,9.35
2022-10-08T19:01:47.323Z,17.88
2022-10-08T19:04:49.752Z,15.40
2022-10-08T19:07:51.140Z,17.60
2022-10-08T19:10:52.549Z,16.83
2022-10-08T19:13:54.487Z,18.30
2022-10-08T19:16:56.040Z,23.67
2022-10-08T19:19:57.423Z,17.58
2022-10-08T19:22:59.176Z,15.73
2022-10-08T19:26:00.573Z,13.13
2022-10-08T19:29:01.998Z,19.40
2022-10-08T19:32:03.448Z,13.18
2022-10-08T19:35:05.516Z,20.20
2022-10-08T19:38:07.127Z,11.60
2022-10-08T19:41:09.972Z,13.82
2022-10-08T19:44:11.921Z,13.93
2022-10-08T19:47:13.325Z,12.27
2022-10-08T19:50:14.848Z,6.68
2022-10-08T19:53:16.271Z,14.02
2022-10-08T19:56:19.457Z,11.07
2022-10-08T19:59:22.003Z,14.18
2022-10-08T20:02:23.470Z,11.05
2022-10-08T20:05:24.986Z,13.73
2022-10-08T20:08:26.423Z,9.75
2022-10-08T20:11:29.324Z,15.05
2022-10-08T20:14:30.881Z,10.73
2022-10-08T20:17:32.286Z,15.73
2022-10-08T20:20:33.952Z,15.32
2022-10-08T20:23:36.789Z,12.43
2022-10-08T20:26:39.969Z,17.30
2022-10-08T20:29:41.364Z,13.63
2022-10-08T20:32:43.023Z,11.15
2022-10-08T20:35:44.437Z,13.13
2022-10-08T20:38:45.868Z,13.65
2022-10-08T20:41:48.039Z,15.75
2022-10-08T20:44:49.843Z,10.73
2022-10-08T20:47:51.812Z,14.40
2022-10-08T20:50:53.251Z,16.50
2022-10-08T20:53:58.920Z,16.33
2022-10-08T20:57:00.530Z,15.30
2022-10-08T21:00:01.948Z,15.43
2022-10-08T21:03:03.608Z,12.23
2022-10-08T21:06:06.766Z,13.98
2022-10-08T21:09:08.600Z,14.75
2022-10-08T21:12:10.007Z,14.73
2022-10-08T21:15:11.399Z,16.77
2022-10-08T21:18:12.789Z,13.18
2022-10-08T21:21:16.026Z,12.10
2022-10-08T21:24:17.618Z,18.48
2022-10-08T21:27:19.049Z,17.27
2022-10-08T21:30:20.464Z,14.77
2022-10-08T21:33:21.863Z,22.83
2022-10-08T21:36:25.689Z,16.70
2022-10-08T21:39:27.089Z,18.63
2022-10-08T21:42:28.581Z,16.40
2022-10-08T21:45:30.027Z,15.52
2022-10-08T21:48:31.493Z,14.73
2022-10-08T21:51:34.270Z,17.27
2022-10-08T21:54:35.702Z,15.35
2022-10-08T21:57:37.125Z,13.88
2022-10-08T22:00:38.575Z,16.85
2022-10-08T22:03:40.158Z,16.90
2022-10-08T22:06:45.541Z,14.88
2022-10-08T22:09:46.949Z,18.73
2022-10-08T22:12:48.668Z,17.80
2022-10-08T22:15:59.442Z,14.57
2022-10-08T22:19:00.972Z,15.75
2022-10-08T22:22:02.525Z,16.38
2022-10-08T22:25:04.229Z,15.27
2022-10-08T22:28:05.815Z,12.10
2022-10-08T22:31:09.942Z,13.13
2022-10-08T22:34:11.386Z,13.10
2022-10-08T22:37:12.782Z,13.40
2022-10-08T22:40:14.329Z,15.75
2022-10-08T22:43:15.726Z,11.18
2022-10-08T22:46:37.106Z,11.43
2022-10-08T22:49:38.488Z,13.18
2022-10-08T22:52:39.873Z,11.13
2022-10-08T22:55:41.556Z,11.90
2022-10-08T22:58:43.150Z,15.18
2022-10-08T23:01:44.719Z,16.52
2022-10-08T23:04:46.222Z,16.63
2022-10-08T23:07:47.641Z,16.67
2022-10-08T23:10:54.660Z,14.90
2022-10-08T23:13:57.967Z,21.00
2022-10-08T23:16:59.416Z,23.80
2022-10-08T23:20:00.837Z,19.88
2022-10-08T23:23:02.235Z,15.05
2022-10-08T23:26:06.108Z,15.30
2022-10-08T23:29:07.477Z,17.40
2022-10-08T23:32:08.990Z,11.15
2022-10-08T23:35:10.428Z,13.05
2022-10-08T23:38:11.851Z,12.80
2022-10-08T23:41:14.571Z,13.95
2022-10-08T23:44:16.021Z,8.98
2022-10-08T23:47:17.396Z,14.90
2022-10-08T23:50:19.536Z,14.40
2022-10-08T23:53:21.450Z,11.98
2022-10-08T23:56:23.462Z,19.25
2022-10-08T23:59:24.925Z,20.20
